Hauptseite
METAR-TAF:

METAR-TAF

Flughäfen :

Flughafen Lusaka

Lusaka, Sambia

Breite: 15-19-51S, Länge: 028-27-09E, Höhe: 1152 m

METAR: fehlend

Zeit: 16:56 (14:56 UTC)

Prognose

Neuester Wetterbericht von vor 28 Stunden und 56 Minuten, um 10:00 UTC
Gültige Prognose vom 22 um 12 UTC bis 23 um 18 UTC
Wind 5 kt aus Ost/Südost
Sichtweite: 9000 m
trockener Dunst
Ab 22 um 1500 UTC
Wind 10 kt aus Ost
Sichtweite 10 km oder mehr
keine Wolken unter 1500 m und keine Kumulonimbus oder Gewitterwolken
Übergehend zu
vom 23 um 04 UTC bis 23 um 06 UTC
Wind 5 kt aus Ost/Südost
Sichtweite: 8000 m
trockener Dunst
Übergehend zu
vom 23 um 08 UTC bis 23 um 10 UTC
Wind 10 kt aus Ost, Böen bis zu 15 kt

TAF: FLKK 221000Z 2212/2318 11005KT 9000 HZ NSC FM221500 08010KT CAVOK BECMG 2304/2306 12005KT 8000 HZ NSC BECMG 2308/2310 09010G15KT

Wetterbeobachtungen und Prognosen von mehr als 4000 Flughäfen (METAR und TAF Bericht).

Die verfügbaren Stationen werden durch gelbe und rote Markierungen auf der Karte dargestellt.

Führen Sie die Maus auf sie, um den Namen der Station zu sehen.

Darauf klicken, um die Beobachtung von Wetterbeobachtungen und Prognosen zu sehen.

Um die Karte zu ändern : klicken Sie auf den grünen Tasten mit einem schwarzen Kreuz Zum Vergrößern, auf den grünen Button mit einem Gedankenstrich zu verkleinern, oder auf die grünen Pfeile für benachbarte Karten.


METAR-TAF: